sensor_id;sensor_type;location;lat;lon;timestamp;P1;durP1;ratioP1;P2;durP2;ratioP2
29452;SDS011;16424;50.956;5.320;2023-07-13T00:01:07;9.70;;;1.50;;
29452;SDS011;16424;50.956;5.320;2023-07-13T00:03:38;4.40;;;0.80;;
29452;SDS011;16424;50.956;5.320;2023-07-13T00:06:14;4.97;;;0.90;;
29452;SDS011;16424;50.956;5.320;2023-07-13T00:08:46;3.58;;;0.85;;
29452;SDS011;16424;50.956;5.320;2023-07-13T00:11:14;5.95;;;0.82;;
29452;SDS011;16424;50.956;5.320;2023-07-13T00:13:41;4.05;;;0.95;;
29452;SDS011;16424;50.956;5.320;2023-07-13T00:16:09;6.97;;;2.17;;
29452;SDS011;16424;50.956;5.320;2023-07-13T00:18:36;3.90;;;1.08;;
29452;SDS011;16424;50.956;5.320;2023-07-13T00:21:03;6.80;;;1.30;;
29452;SDS011;16424;50.956;5.320;2023-07-13T00:23:32;7.88;;;1.20;;
29452;SDS011;16424;50.956;5.320;2023-07-13T00:26:05;3.50;;;0.95;;
29452;SDS011;16424;50.956;5.320;2023-07-13T00:28:33;4.43;;;0.82;;
29452;SDS011;16424;50.956;5.320;2023-07-13T00:31:02;5.60;;;1.30;;
29452;SDS011;16424;50.956;5.320;2023-07-13T00:33:28;6.65;;;1.08;;
29452;SDS011;16424;50.956;5.320;2023-07-13T00:35:55;7.35;;;1.20;;
29452;SDS011;16424;50.956;5.320;2023-07-13T00:38:24;5.05;;;1.27;;
29452;SDS011;16424;50.956;5.320;2023-07-13T00:40:50;7.68;;;1.30;;
29452;SDS011;16424;50.956;5.320;2023-07-13T00:43:17;6.00;;;1.33;;
29452;SDS011;16424;50.956;5.320;2023-07-13T00:48:16;5.55;;;1.20;;
29452;SDS011;16424;50.956;5.320;2023-07-13T00:50:49;9.20;;;1.20;;
29452;SDS011;16424;50.956;5.320;2023-07-13T00:53:20;5.25;;;1.25;;
29452;SDS011;16424;50.956;5.320;2023-07-13T00:55:47;6.93;;;1.10;;
29452;SDS011;16424;50.956;5.320;2023-07-13T00:58:15;5.93;;;1.58;;
29452;SDS011;16424;50.956;5.320;2023-07-13T01:00:44;7.50;;;1.88;;
29452;SDS011;16424;50.956;5.320;2023-07-13T01:03:15;4.82;;;1.33;;
29452;SDS011;16424;50.956;5.320;2023-07-13T01:05:42;3.30;;;1.20;;
29452;SDS011;16424;50.956;5.320;2023-07-13T01:08:08;3.83;;;1.00;;
29452;SDS011;16424;50.956;5.320;2023-07-13T01:10:38;6.40;;;1.20;;
29452;SDS011;16424;50.956;5.320;2023-07-13T01:13:06;4.22;;;1.25;;
29452;SDS011;16424;50.956;5.320;2023-07-13T01:15:42;3.63;;;1.00;;
29452;SDS011;16424;50.956;5.320;2023-07-13T01:18:14;3.10;;;1.30;;
29452;SDS011;16424;50.956;5.320;2023-07-13T01:20:59;4.18;;;1.10;;
29452;SDS011;16424;50.956;5.320;2023-07-13T01:23:27;7.53;;;1.60;;
29452;SDS011;16424;50.956;5.320;2023-07-13T01:25:57;4.15;;;1.10;;
29452;SDS011;16424;50.956;5.320;2023-07-13T01:28:24;5.13;;;1.27;;
29452;SDS011;16424;50.956;5.320;2023-07-13T01:30:55;12.88;;;1.92;;
29452;SDS011;16424;50.956;5.320;2023-07-13T01:33:23;9.48;;;1.30;;
29452;SDS011;16424;50.956;5.320;2023-07-13T01:35:49;3.42;;;1.20;;
29452;SDS011;16424;50.956;5.320;2023-07-13T01:38:16;8.75;;;1.63;;
29452;SDS011;16424;50.956;5.320;2023-07-13T01:40:44;4.60;;;1.45;;
29452;SDS011;16424;50.956;5.320;2023-07-13T01:43:10;5.95;;;1.45;;
29452;SDS011;16424;50.956;5.320;2023-07-13T01:45:36;8.18;;;1.55;;
29452;SDS011;16424;50.956;5.320;2023-07-13T01:48:02;8.32;;;1.75;;
29452;SDS011;16424;50.956;5.320;2023-07-13T01:53:09;5.75;;;1.40;;
29452;SDS011;16424;50.956;5.320;2023-07-13T01:55:37;6.22;;;1.33;;
29452;SDS011;16424;50.956;5.320;2023-07-13T01:58:03;6.25;;;1.80;;
29452;SDS011;16424;50.956;5.320;2023-07-13T02:00:29;7.32;;;1.60;;
29452;SDS011;16424;50.956;5.320;2023-07-13T02:02:56;3.95;;;1.80;;
29452;SDS011;16424;50.956;5.320;2023-07-13T02:05:22;3.92;;;1.17;;
29452;SDS011;16424;50.956;5.320;2023-07-13T02:07:49;4.60;;;1.60;;
29452;SDS011;16424;50.956;5.320;2023-07-13T02:10:15;5.28;;;1.30;;
29452;SDS011;16424;50.956;5.320;2023-07-13T02:12:41;9.38;;;1.50;;
29452;SDS011;16424;50.956;5.320;2023-07-13T02:15:07;9.30;;;1.80;;
29452;SDS011;16424;50.956;5.320;2023-07-13T02:17:34;5.18;;;1.20;;
29452;SDS011;16424;50.956;5.320;2023-07-13T02:20:01;6.32;;;1.38;;
29452;SDS011;16424;50.956;5.320;2023-07-13T02:22:28;7.38;;;1.60;;
29452;SDS011;16424;50.956;5.320;2023-07-13T02:24:54;8.45;;;1.60;;
29452;SDS011;16424;50.956;5.320;2023-07-13T02:27:25;5.70;;;2.17;;
29452;SDS011;16424;50.956;5.320;2023-07-13T02:29:52;8.80;;;1.20;;
29452;SDS011;16424;50.956;5.320;2023-07-13T02:32:18;5.47;;;1.20;;
29452;SDS011;16424;50.956;5.320;2023-07-13T02:34:44;6.45;;;1.48;;
29452;SDS011;16424;50.956;5.320;2023-07-13T02:37:10;5.82;;;1.40;;
29452;SDS011;16424;50.956;5.320;2023-07-13T02:39:36;6.85;;;1.55;;
29452;SDS011;16424;50.956;5.320;2023-07-13T02:42:03;4.38;;;1.50;;
29452;SDS011;16424;50.956;5.320;2023-07-13T02:44:29;6.07;;;1.50;;
29452;SDS011;16424;50.956;5.320;2023-07-13T02:46:55;7.82;;;1.85;;
29452;SDS011;16424;50.956;5.320;2023-07-13T02:49:24;5.03;;;1.60;;
29452;SDS011;16424;50.956;5.320;2023-07-13T02:51:50;8.27;;;1.60;;
29452;SDS011;16424;50.956;5.320;2023-07-13T02:54:16;4.22;;;1.50;;
29452;SDS011;16424;50.956;5.320;2023-07-13T02:56:43;6.15;;;2.00;;
29452;SDS011;16424;50.956;5.320;2023-07-13T02:59:09;6.63;;;2.05;;
29452;SDS011;16424;50.956;5.320;2023-07-13T03:01:36;9.40;;;1.80;;
29452;SDS011;16424;50.956;5.320;2023-07-13T03:04:02;4.00;;;1.35;;
29452;SDS011;16424;50.956;5.320;2023-07-13T03:06:30;8.07;;;1.70;;
29452;SDS011;16424;50.956;5.320;2023-07-13T03:08:57;10.30;;;2.13;;
29452;SDS011;16424;50.956;5.320;2023-07-13T03:11:23;4.22;;;1.45;;
29452;SDS011;16424;50.956;5.320;2023-07-13T03:13:52;8.93;;;1.63;;
29452;SDS011;16424;50.956;5.320;2023-07-13T03:16:23;9.00;;;2.13;;
29452;SDS011;16424;50.956;5.320;2023-07-13T03:18:49;8.77;;;2.30;;
29452;SDS011;16424;50.956;5.320;2023-07-13T03:21:15;9.63;;;1.65;;
29452;SDS011;16424;50.956;5.320;2023-07-13T03:23:44;11.43;;;2.03;;
29452;SDS011;16424;50.956;5.320;2023-07-13T03:26:15;8.95;;;2.05;;
29452;SDS011;16424;50.956;5.320;2023-07-13T03:28:42;11.98;;;1.92;;
29452;SDS011;16424;50.956;5.320;2023-07-13T03:31:10;8.80;;;1.92;;
29452;SDS011;16424;50.956;5.320;2023-07-13T03:33:38;8.88;;;1.33;;
29452;SDS011;16424;50.956;5.320;2023-07-13T03:36:05;7.22;;;1.77;;
29452;SDS011;16424;50.956;5.320;2023-07-13T03:38:36;7.57;;;2.58;;
29452;SDS011;16424;50.956;5.320;2023-07-13T03:41:02;6.97;;;1.58;;
29452;SDS011;16424;50.956;5.320;2023-07-13T03:43:28;7.07;;;1.55;;
29452;SDS011;16424;50.956;5.320;2023-07-13T03:45:54;6.72;;;1.35;;
29452;SDS011;16424;50.956;5.320;2023-07-13T03:48:20;5.93;;;1.67;;
29452;SDS011;16424;50.956;5.320;2023-07-13T03:50:49;11.27;;;2.70;;
29452;SDS011;16424;50.956;5.320;2023-07-13T03:53:15;9.70;;;2.05;;
29452;SDS011;16424;50.956;5.320;2023-07-13T03:55:41;5.30;;;1.58;;
29452;SDS011;16424;50.956;5.320;2023-07-13T03:58:24;5.63;;;1.58;;
29452;SDS011;16424;50.956;5.320;2023-07-13T04:00:53;5.97;;;1.75;;
29452;SDS011;16424;50.956;5.320;2023-07-13T04:03:19;6.32;;;1.52;;
29452;SDS011;16424;50.956;5.320;2023-07-13T04:05:46;6.97;;;2.47;;
29452;SDS011;16424;50.956;5.320;2023-07-13T04:08:12;4.72;;;1.60;;
29452;SDS011;16424;50.956;5.320;2023-07-13T04:10:38;5.03;;;2.13;;
29452;SDS011;16424;50.956;5.320;2023-07-13T04:13:05;3.33;;;1.52;;
29452;SDS011;16424;50.956;5.320;2023-07-13T04:15:31;8.30;;;1.85;;
29452;SDS011;16424;50.956;5.320;2023-07-13T04:17:58;6.03;;;1.52;;
29452;SDS011;16424;50.956;5.320;2023-07-13T04:20:29;7.07;;;2.05;;
29452;SDS011;16424;50.956;5.320;2023-07-13T04:22:55;6.53;;;1.77;;
29452;SDS011;16424;50.956;5.320;2023-07-13T04:25:22;7.95;;;1.90;;
29452;SDS011;16424;50.956;5.320;2023-07-13T04:27:49;7.35;;;1.73;;
29452;SDS011;16424;50.956;5.320;2023-07-13T04:30:15;9.13;;;1.88;;
29452;SDS011;16424;50.956;5.320;2023-07-13T04:32:41;7.45;;;1.73;;
29452;SDS011;16424;50.956;5.320;2023-07-13T04:35:07;10.65;;;1.98;;
29452;SDS011;16424;50.956;5.320;2023-07-13T04:37:33;9.98;;;2.15;;
29452;SDS011;16424;50.956;5.320;2023-07-13T04:40:03;9.07;;;2.30;;
29452;SDS011;16424;50.956;5.320;2023-07-13T04:42:31;7.28;;;1.90;;
29452;SDS011;16424;50.956;5.320;2023-07-13T04:45:00;6.07;;;2.17;;
29452;SDS011;16424;50.956;5.320;2023-07-13T04:47:35;9.70;;;2.22;;
29452;SDS011;16424;50.956;5.320;2023-07-13T04:50:01;7.22;;;2.10;;
29452;SDS011;16424;50.956;5.320;2023-07-13T04:52:27;5.50;;;1.90;;
29452;SDS011;16424;50.956;5.320;2023-07-13T04:54:58;9.18;;;2.28;;
29452;SDS011;16424;50.956;5.320;2023-07-13T04:57:28;8.27;;;1.92;;
29452;SDS011;16424;50.956;5.320;2023-07-13T04:59:54;12.90;;;2.47;;
29452;SDS011;16424;50.956;5.320;2023-07-13T05:02:20;10.15;;;1.92;;
29452;SDS011;16424;50.956;5.320;2023-07-13T05:04:47;9.13;;;2.05;;
29452;SDS011;16424;50.956;5.320;2023-07-13T05:07:13;9.55;;;2.00;;
29452;SDS011;16424;50.956;5.320;2023-07-13T05:09:39;11.80;;;2.13;;
29452;SDS011;16424;50.956;5.320;2023-07-13T05:12:09;6.53;;;2.22;;
29452;SDS011;16424;50.956;5.320;2023-07-13T05:14:35;9.70;;;2.40;;
29452;SDS011;16424;50.956;5.320;2023-07-13T05:17:04;7.13;;;1.85;;
29452;SDS011;16424;50.956;5.320;2023-07-13T05:19:30;10.35;;;2.30;;
29452;SDS011;16424;50.956;5.320;2023-07-13T05:21:57;10.95;;;3.08;;
29452;SDS011;16424;50.956;5.320;2023-07-13T05:24:23;11.05;;;2.10;;
29452;SDS011;16424;50.956;5.320;2023-07-13T05:26:49;12.38;;;2.17;;
29452;SDS011;16424;50.956;5.320;2023-07-13T05:29:17;11.07;;;2.40;;
29452;SDS011;16424;50.956;5.320;2023-07-13T05:31:48;8.02;;;2.40;;
29452;SDS011;16424;50.956;5.320;2023-07-13T05:34:14;9.45;;;2.10;;
29452;SDS011;16424;50.956;5.320;2023-07-13T05:36:49;13.10;;;2.70;;
29452;SDS011;16424;50.956;5.320;2023-07-13T05:39:18;14.23;;;2.05;;
29452;SDS011;16424;50.956;5.320;2023-07-13T05:41:44;8.88;;;2.88;;
29452;SDS011;16424;50.956;5.320;2023-07-13T05:44:10;10.50;;;2.75;;
29452;SDS011;16424;50.956;5.320;2023-07-13T05:46:36;10.23;;;1.75;;
29452;SDS011;16424;50.956;5.320;2023-07-13T05:49:04;10.57;;;2.20;;
29452;SDS011;16424;50.956;5.320;2023-07-13T05:51:34;9.65;;;2.28;;
29452;SDS011;16424;50.956;5.320;2023-07-13T05:54:04;7.85;;;1.98;;
29452;SDS011;16424;50.956;5.320;2023-07-13T05:56:39;9.20;;;1.80;;
29452;SDS011;16424;50.956;5.320;2023-07-13T05:59:05;11.23;;;2.53;;
29452;SDS011;16424;50.956;5.320;2023-07-13T06:01:34;11.55;;;2.17;;
29452;SDS011;16424;50.956;5.320;2023-07-13T06:04:04;6.70;;;1.92;;
29452;SDS011;16424;50.956;5.320;2023-07-13T06:06:33;7.57;;;1.70;;
29452;SDS011;16424;50.956;5.320;2023-07-13T06:09:02;12.77;;;2.40;;
29452;SDS011;16424;50.956;5.320;2023-07-13T06:11:37;10.52;;;2.72;;
29452;SDS011;16424;50.956;5.320;2023-07-13T06:14:06;9.68;;;2.00;;
29452;SDS011;16424;50.956;5.320;2023-07-13T06:16:32;17.92;;;2.88;;
29452;SDS011;16424;50.956;5.320;2023-07-13T06:18:58;11.10;;;1.98;;
29452;SDS011;16424;50.956;5.320;2023-07-13T06:21:24;12.77;;;3.25;;
29452;SDS011;16424;50.956;5.320;2023-07-13T06:23:56;8.75;;;2.30;;
29452;SDS011;16424;50.956;5.320;2023-07-13T06:26:28;7.82;;;2.05;;
29452;SDS011;16424;50.956;5.320;2023-07-13T06:28:57;11.45;;;2.72;;
29452;SDS011;16424;50.956;5.320;2023-07-13T06:31:46;11.38;;;2.60;;
29452;SDS011;16424;50.956;5.320;2023-07-13T06:34:13;12.75;;;2.65;;
29452;SDS011;16424;50.956;5.320;2023-07-13T06:36:39;10.35;;;2.72;;
29452;SDS011;16424;50.956;5.320;2023-07-13T06:39:32;10.77;;;1.90;;
29452;SDS011;16424;50.956;5.320;2023-07-13T06:42:06;10.35;;;3.80;;
29452;SDS011;16424;50.956;5.320;2023-07-13T06:44:46;9.43;;;2.42;;
29452;SDS011;16424;50.956;5.320;2023-07-13T06:47:22;10.50;;;2.58;;
29452;SDS011;16424;50.956;5.320;2023-07-13T06:49:52;6.60;;;2.50;;
29452;SDS011;16424;50.956;5.320;2023-07-13T06:52:21;17.48;;;2.50;;
29452;SDS011;16424;50.956;5.320;2023-07-13T06:54:50;10.32;;;2.20;;
29452;SDS011;16424;50.956;5.320;2023-07-13T06:57:18;9.40;;;2.85;;
29452;SDS011;16424;50.956;5.320;2023-07-13T06:59:50;8.98;;;1.85;;
29452;SDS011;16424;50.956;5.320;2023-07-13T07:02:24;7.47;;;2.35;;
29452;SDS011;16424;50.956;5.320;2023-07-13T07:04:53;13.95;;;2.47;;
29452;SDS011;16424;50.956;5.320;2023-07-13T07:07:26;13.00;;;2.50;;
29452;SDS011;16424;50.956;5.320;2023-07-13T07:09:55;18.25;;;4.13;;
29452;SDS011;16424;50.956;5.320;2023-07-13T07:12:21;13.98;;;2.42;;
29452;SDS011;16424;50.956;5.320;2023-07-13T07:14:55;13.48;;;2.22;;
29452;SDS011;16424;50.956;5.320;2023-07-13T07:17:23;8.65;;;2.60;;
29452;SDS011;16424;50.956;5.320;2023-07-13T07:19:51;6.65;;;2.10;;
29452;SDS011;16424;50.956;5.320;2023-07-13T07:22:21;11.38;;;2.40;;
29452;SDS011;16424;50.956;5.320;2023-07-13T07:24:56;9.98;;;2.47;;
29452;SDS011;16424;50.956;5.320;2023-07-13T07:27:26;14.73;;;2.33;;
29452;SDS011;16424;50.956;5.320;2023-07-13T07:29:55;9.23;;;2.80;;
29452;SDS011;16424;50.956;5.320;2023-07-13T07:32:28;10.85;;;2.83;;
29452;SDS011;16424;50.956;5.320;2023-07-13T07:34:56;10.15;;;2.40;;
29452;SDS011;16424;50.956;5.320;2023-07-13T07:37:26;7.28;;;2.10;;
29452;SDS011;16424;50.956;5.320;2023-07-13T07:39:57;11.20;;;2.25;;
29452;SDS011;16424;50.956;5.320;2023-07-13T07:42:32;9.00;;;2.08;;
29452;SDS011;16424;50.956;5.320;2023-07-13T07:44:58;13.27;;;2.80;;
29452;SDS011;16424;50.956;5.320;2023-07-13T07:47:26;11.68;;;2.75;;
29452;SDS011;16424;50.956;5.320;2023-07-13T07:49:52;8.73;;;2.22;;
29452;SDS011;16424;50.956;5.320;2023-07-13T07:52:21;9.75;;;1.90;;
29452;SDS011;16424;50.956;5.320;2023-07-13T07:54:52;9.38;;;2.47;;
29452;SDS011;16424;50.956;5.320;2023-07-13T07:57:21;12.77;;;2.20;;
29452;SDS011;16424;50.956;5.320;2023-07-13T07:59:49;5.75;;;2.00;;
29452;SDS011;16424;50.956;5.320;2023-07-13T08:02:18;7.78;;;1.83;;
29452;SDS011;16424;50.956;5.320;2023-07-13T08:04:47;8.80;;;2.60;;
29452;SDS011;16424;50.956;5.320;2023-07-13T08:07:13;13.48;;;2.38;;
29452;SDS011;16424;50.956;5.320;2023-07-13T08:09:47;11.15;;;2.33;;
29452;SDS011;16424;50.956;5.320;2023-07-13T08:12:17;12.95;;;2.35;;
29452;SDS011;16424;50.956;5.320;2023-07-13T08:14:43;8.38;;;1.90;;
29452;SDS011;16424;50.956;5.320;2023-07-13T08:17:09;9.52;;;2.03;;
29452;SDS011;16424;50.956;5.320;2023-07-13T08:19:35;8.73;;;2.00;;
29452;SDS011;16424;50.956;5.320;2023-07-13T08:22:01;12.68;;;2.50;;
29452;SDS011;16424;50.956;5.320;2023-07-13T08:24:27;10.25;;;2.10;;
29452;SDS011;16424;50.956;5.320;2023-07-13T08:26:52;8.65;;;2.17;;
29452;SDS011;16424;50.956;5.320;2023-07-13T08:29:20;9.48;;;2.30;;
29452;SDS011;16424;50.956;5.320;2023-07-13T08:31:46;12.90;;;2.20;;
29452;SDS011;16424;50.956;5.320;2023-07-13T08:34:12;13.25;;;2.25;;
29452;SDS011;16424;50.956;5.320;2023-07-13T08:36:39;9.90;;;2.13;;
29452;SDS011;16424;50.956;5.320;2023-07-13T08:39:06;9.43;;;1.80;;
29452;SDS011;16424;50.956;5.320;2023-07-13T08:41:32;18.70;;;2.58;;
29452;SDS011;16424;50.956;5.320;2023-07-13T08:43:59;12.45;;;2.20;;
29452;SDS011;16424;50.956;5.320;2023-07-13T08:46:32;18.75;;;3.95;;
29452;SDS011;16424;50.956;5.320;2023-07-13T08:49:02;8.27;;;2.35;;
29452;SDS011;16424;50.956;5.320;2023-07-13T08:54:50;10.48;;;2.17;;
29452;SDS011;16424;50.956;5.320;2023-07-13T08:57:02;8.88;;;2.05;;
29452;SDS011;16424;50.956;5.320;2023-07-13T08:59:37;6.18;;;1.65;;
29452;SDS011;16424;50.956;5.320;2023-07-13T09:04:34;7.32;;;1.67;;
29452;SDS011;16424;50.956;5.320;2023-07-13T09:15:05;8.35;;;1.63;;
29452;SDS011;16424;50.956;5.320;2023-07-13T09:17:48;6.30;;;1.63;;
29452;SDS011;16424;50.956;5.320;2023-07-13T09:22:59;8.23;;;1.38;;
29452;SDS011;16424;50.956;5.320;2023-07-13T09:25:35;6.85;;;1.45;;
29452;SDS011;16424;50.956;5.320;2023-07-13T09:28:08;6.85;;;1.63;;
29452;SDS011;16424;50.956;5.320;2023-07-13T09:33:16;6.70;;;2.22;;
29452;SDS011;16424;50.956;5.320;2023-07-13T09:35:42;4.38;;;1.25;;
29452;SDS011;16424;50.956;5.320;2023-07-13T09:38:12;7.45;;;1.73;;
29452;SDS011;16424;50.956;5.320;2023-07-13T09:40:43;3.05;;;1.33;;
29452;SDS011;16424;50.956;5.320;2023-07-13T09:43:14;8.88;;;1.65;;
29452;SDS011;16424;50.956;5.320;2023-07-13T09:45:42;9.15;;;1.67;;
29452;SDS011;16424;50.956;5.320;2023-07-13T09:48:13;6.18;;;1.67;;
29452;SDS011;16424;50.956;5.320;2023-07-13T09:50:40;3.83;;;1.10;;
29452;SDS011;16424;50.956;5.320;2023-07-13T09:53:11;7.97;;;1.50;;
29452;SDS011;16424;50.956;5.320;2023-07-13T09:55:42;3.40;;;1.23;;
29452;SDS011;16424;50.956;5.320;2023-07-13T09:58:14;7.28;;;1.52;;
29452;SDS011;16424;50.956;5.320;2023-07-13T10:00:56;8.93;;;1.40;;
29452;SDS011;16424;50.956;5.320;2023-07-13T10:03:28;8.38;;;1.30;;
29452;SDS011;16424;50.956;5.320;2023-07-13T10:06:16;4.03;;;1.20;;
29452;SDS011;16424;50.956;5.320;2023-07-13T10:08:46;7.13;;;1.35;;
29452;SDS011;16424;50.956;5.320;2023-07-13T10:14:16;5.35;;;1.17;;
29452;SDS011;16424;50.956;5.320;2023-07-13T10:16:46;5.63;;;1.00;;
29452;SDS011;16424;50.956;5.320;2023-07-13T10:21:54;5.33;;;1.87;;
29452;SDS011;16424;50.956;5.320;2023-07-13T10:24:25;4.13;;;1.13;;
29452;SDS011;16424;50.956;5.320;2023-07-13T10:29:50;3.45;;;1.10;;
29452;SDS011;16424;50.956;5.320;2023-07-13T10:32:26;3.85;;;1.40;;
29452;SDS011;16424;50.956;5.320;2023-07-13T10:34:52;7.32;;;1.42;;
29452;SDS011;16424;50.956;5.320;2023-07-13T10:37:28;10.18;;;1.42;;
29452;SDS011;16424;50.956;5.320;2023-07-13T10:39:59;4.68;;;1.10;;
29452;SDS011;16424;50.956;5.320;2023-07-13T10:42:33;5.70;;;1.60;;
29452;SDS011;16424;50.956;5.320;2023-07-13T10:47:58;4.85;;;1.30;;
29452;SDS011;16424;50.956;5.320;2023-07-13T10:50:26;7.93;;;1.40;;
29452;SDS011;16424;50.956;5.320;2023-07-13T10:52:55;5.30;;;1.67;;
29452;SDS011;16424;50.956;5.320;2023-07-13T11:00:42;6.93;;;1.38;;
29452;SDS011;16424;50.956;5.320;2023-07-13T11:03:21;5.75;;;1.20;;
29452;SDS011;16424;50.956;5.320;2023-07-13T11:05:52;2.88;;;0.77;;
29452;SDS011;16424;50.956;5.320;2023-07-13T11:23:44;4.78;;;1.13;;
29452;SDS011;16424;50.956;5.320;2023-07-13T11:31:57;5.15;;;1.30;;
29452;SDS011;16424;50.956;5.320;2023-07-13T11:34:33;4.13;;;1.50;;
29452;SDS011;16424;50.956;5.320;2023-07-13T11:37:02;4.88;;;1.00;;
29452;SDS011;16424;50.956;5.320;2023-07-13T11:39:30;2.47;;;0.98;;
29452;SDS011;16424;50.956;5.320;2023-07-13T11:42:03;1.45;;;0.70;;
29452;SDS011;16424;50.956;5.320;2023-07-13T11:44:44;9.98;;;1.35;;
29452;SDS011;16424;50.956;5.320;2023-07-13T11:47:20;3.08;;;0.90;;
29452;SDS011;16424;50.956;5.320;2023-07-13T11:52:26;7.82;;;1.33;;
29452;SDS011;16424;50.956;5.320;2023-07-13T11:55:00;2.55;;;1.60;;
29452;SDS011;16424;50.956;5.320;2023-07-13T11:57:28;6.35;;;0.80;;
29452;SDS011;16424;50.956;5.320;2023-07-13T12:00:00;2.85;;;0.93;;
29452;SDS011;16424;50.956;5.320;2023-07-13T12:02:36;5.63;;;1.08;;
29452;SDS011;16424;50.956;5.320;2023-07-13T12:05:05;3.85;;;0.95;;
29452;SDS011;16424;50.956;5.320;2023-07-13T12:07:34;4.85;;;1.10;;
29452;SDS011;16424;50.956;5.320;2023-07-13T12:10:25;5.55;;;1.40;;
29452;SDS011;16424;50.956;5.320;2023-07-13T12:15:19;5.43;;;1.30;;
29452;SDS011;16424;50.956;5.320;2023-07-13T12:17:47;3.05;;;1.02;;
29452;SDS011;16424;50.956;5.320;2023-07-13T12:20:35;3.70;;;1.08;;
29452;SDS011;16424;50.956;5.320;2023-07-13T12:23:04;4.82;;;1.20;;
29452;SDS011;16424;50.956;5.320;2023-07-13T12:25:31;2.70;;;1.08;;
29452;SDS011;16424;50.956;5.320;2023-07-13T12:27:57;3.67;;;0.93;;
29452;SDS011;16424;50.956;5.320;2023-07-13T12:30:24;4.15;;;1.15;;
29452;SDS011;16424;50.956;5.320;2023-07-13T12:32:55;3.28;;;0.77;;
29452;SDS011;16424;50.956;5.320;2023-07-13T12:35:26;2.05;;;0.77;;
29452;SDS011;16424;50.956;5.320;2023-07-13T12:37:56;5.85;;;0.98;;
29452;SDS011;16424;50.956;5.320;2023-07-13T12:40:27;3.92;;;0.80;;
29452;SDS011;16424;50.956;5.320;2023-07-13T12:42:58;4.30;;;0.90;;
29452;SDS011;16424;50.956;5.320;2023-07-13T12:45:29;3.22;;;0.70;;
29452;SDS011;16424;50.956;5.320;2023-07-13T12:48:02;4.22;;;0.95;;
29452;SDS011;16424;50.956;5.320;2023-07-13T12:50:43;3.83;;;1.17;;
29452;SDS011;16424;50.956;5.320;2023-07-13T12:53:14;4.35;;;0.90;;
29452;SDS011;16424;50.956;5.320;2023-07-13T12:55:45;5.95;;;1.00;;
29452;SDS011;16424;50.956;5.320;2023-07-13T12:58:17;4.53;;;1.05;;
29452;SDS011;16424;50.956;5.320;2023-07-13T13:00:50;3.70;;;0.90;;
29452;SDS011;16424;50.956;5.320;2023-07-13T13:03:24;2.25;;;1.00;;
29452;SDS011;16424;50.956;5.320;2023-07-13T13:06:06;5.57;;;0.88;;
29452;SDS011;16424;50.956;5.320;2023-07-13T13:08:45;2.20;;;1.00;;
29452;SDS011;16424;50.956;5.320;2023-07-13T13:11:14;3.30;;;0.73;;
29452;SDS011;16424;50.956;5.320;2023-07-13T13:13:43;4.72;;;0.95;;
29452;SDS011;16424;50.956;5.320;2023-07-13T13:16:11;5.15;;;0.85;;
29452;SDS011;16424;50.956;5.320;2023-07-13T13:18:51;2.17;;;0.90;;
29452;SDS011;16424;50.956;5.320;2023-07-13T13:21:19;6.55;;;1.25;;
29452;SDS011;16424;50.956;5.320;2023-07-13T13:23:45;10.45;;;0.88;;
29452;SDS011;16424;50.956;5.320;2023-07-13T13:26:12;5.65;;;1.10;;
29452;SDS011;16424;50.956;5.320;2023-07-13T13:28:43;6.13;;;0.98;;
29452;SDS011;16424;50.956;5.320;2023-07-13T13:31:09;4.75;;;1.33;;
29452;SDS011;16424;50.956;5.320;2023-07-13T13:33:38;4.93;;;0.90;;
29452;SDS011;16424;50.956;5.320;2023-07-13T13:36:17;5.95;;;0.95;;
29452;SDS011;16424;50.956;5.320;2023-07-13T13:38:45;3.53;;;1.23;;
29452;SDS011;16424;50.956;5.320;2023-07-13T13:41:15;4.07;;;1.10;;
29452;SDS011;16424;50.956;5.320;2023-07-13T13:43:41;3.75;;;1.23;;
29452;SDS011;16424;50.956;5.320;2023-07-13T13:46:12;2.90;;;1.25;;
29452;SDS011;16424;50.956;5.320;2023-07-13T13:48:43;3.33;;;1.30;;
29452;SDS011;16424;50.956;5.320;2023-07-13T13:51:18;1.77;;;0.95;;
29452;SDS011;16424;50.956;5.320;2023-07-13T13:53:45;3.13;;;1.05;;
29452;SDS011;16424;50.956;5.320;2023-07-13T13:56:15;3.70;;;0.82;;
29452;SDS011;16424;50.956;5.320;2023-07-13T13:58:43;3.92;;;1.13;;
29452;SDS011;16424;50.956;5.320;2023-07-13T14:01:22;2.03;;;1.60;;
29452;SDS011;16424;50.956;5.320;2023-07-13T14:03:59;3.03;;;0.98;;
29452;SDS011;16424;50.956;5.320;2023-07-13T14:06:25;4.00;;;1.17;;
29452;SDS011;16424;50.956;5.320;2023-07-13T14:08:52;3.03;;;1.15;;
29452;SDS011;16424;50.956;5.320;2023-07-13T14:11:20;2.60;;;1.20;;
29452;SDS011;16424;50.956;5.320;2023-07-13T14:13:54;3.83;;;1.10;;
29452;SDS011;16424;50.956;5.320;2023-07-13T14:16:32;3.42;;;1.17;;
29452;SDS011;16424;50.956;5.320;2023-07-13T14:18:59;2.13;;;1.17;;
29452;SDS011;16424;50.956;5.320;2023-07-13T14:21:28;4.25;;;1.20;;
29452;SDS011;16424;50.956;5.320;2023-07-13T14:23:54;2.58;;;1.00;;
29452;SDS011;16424;50.956;5.320;2023-07-13T14:26:24;4.00;;;1.67;;
29452;SDS011;16424;50.956;5.320;2023-07-13T14:28:56;2.45;;;0.90;;
29452;SDS011;16424;50.956;5.320;2023-07-13T14:31:23;3.00;;;1.05;;
29452;SDS011;16424;50.956;5.320;2023-07-13T14:33:51;2.97;;;1.33;;
29452;SDS011;16424;50.956;5.320;2023-07-13T14:38:49;3.53;;;1.00;;
29452;SDS011;16424;50.956;5.320;2023-07-13T14:41:15;6.43;;;1.40;;
29452;SDS011;16424;50.956;5.320;2023-07-13T14:43:41;3.05;;;1.10;;
29452;SDS011;16424;50.956;5.320;2023-07-13T14:46:08;3.53;;;1.73;;
29452;SDS011;16424;50.956;5.320;2023-07-13T14:48:58;1.92;;;1.50;;
29452;SDS011;16424;50.956;5.320;2023-07-13T14:51:34;3.28;;;1.20;;
29452;SDS011;16424;50.956;5.320;2023-07-13T14:54:02;2.97;;;1.20;;
29452;SDS011;16424;50.956;5.320;2023-07-13T14:56:30;5.95;;;1.40;;
29452;SDS011;16424;50.956;5.320;2023-07-13T14:58:56;3.63;;;0.80;;
29452;SDS011;16424;50.956;5.320;2023-07-13T15:01:22;5.72;;;1.33;;
29452;SDS011;16424;50.956;5.320;2023-07-13T15:03:49;1.88;;;1.00;;
29452;SDS011;16424;50.956;5.320;2023-07-13T15:06:17;3.10;;;1.10;;
29452;SDS011;16424;50.956;5.320;2023-07-13T15:08:44;1.63;;;0.88;;
29452;SDS011;16424;50.956;5.320;2023-07-13T15:11:10;2.40;;;1.13;;
29452;SDS011;16424;50.956;5.320;2023-07-13T15:13:37;1.92;;;0.73;;
29452;SDS011;16424;50.956;5.320;2023-07-13T15:16:04;3.10;;;0.93;;
29452;SDS011;16424;50.956;5.320;2023-07-13T15:18:38;1.55;;;0.90;;
29452;SDS011;16424;50.956;5.320;2023-07-13T15:21:08;1.65;;;0.80;;
29452;SDS011;16424;50.956;5.320;2023-07-13T15:23:38;1.45;;;0.73;;
29452;SDS011;16424;50.956;5.320;2023-07-13T15:26:04;3.10;;;0.80;;
29452;SDS011;16424;50.956;5.320;2023-07-13T15:28:31;2.15;;;0.80;;
29452;SDS011;16424;50.956;5.320;2023-07-13T15:30:57;5.90;;;0.82;;
29452;SDS011;16424;50.956;5.320;2023-07-13T15:33:27;1.38;;;0.80;;
29452;SDS011;16424;50.956;5.320;2023-07-13T15:35:54;2.03;;;0.90;;
29452;SDS011;16424;50.956;5.320;2023-07-13T15:38:23;5.68;;;1.45;;
29452;SDS011;16424;50.956;5.320;2023-07-13T15:40:51;1.80;;;0.98;;
29452;SDS011;16424;50.956;5.320;2023-07-13T15:43:17;2.33;;;0.93;;
29452;SDS011;16424;50.956;5.320;2023-07-13T15:45:44;2.67;;;1.17;;
29452;SDS011;16424;50.956;5.320;2023-07-13T15:48:12;4.82;;;0.90;;
29452;SDS011;16424;50.956;5.320;2023-07-13T15:50:55;7.15;;;1.33;;
29452;SDS011;16424;50.956;5.320;2023-07-13T15:53:31;3.90;;;1.27;;
29452;SDS011;16424;50.956;5.320;2023-07-13T15:55:58;5.60;;;1.45;;
29452;SDS011;16424;50.956;5.320;2023-07-13T15:58:24;2.47;;;0.80;;
29452;SDS011;16424;50.956;5.320;2023-07-13T16:00:51;3.55;;;0.95;;
29452;SDS011;16424;50.956;5.320;2023-07-13T16:03:18;1.02;;;0.90;;
29452;SDS011;16424;50.956;5.320;2023-07-13T16:05:45;4.43;;;1.10;;
29452;SDS011;16424;50.956;5.320;2023-07-13T16:08:25;5.13;;;1.10;;